sensor_id;sensor_type;location;lat;lon;timestamp;P1;durP1;ratioP1;P2;durP2;ratioP2
11173;SDS011;5643;50.856;12.088;2023-09-18T00:00:23;1.23;;;1.20;;
11173;SDS011;5643;50.856;12.088;2023-09-18T00:02:50;1.13;;;1.10;;
11173;SDS011;5643;50.856;12.088;2023-09-18T00:05:17;1.20;;;1.20;;
11173;SDS011;5643;50.856;12.088;2023-09-18T00:07:46;1.10;;;1.10;;
11173;SDS011;5643;50.856;12.088;2023-09-18T00:10:13;1.27;;;1.27;;
11173;SDS011;5643;50.856;12.088;2023-09-18T00:12:40;1.20;;;1.10;;
11173;SDS011;5643;50.856;12.088;2023-09-18T00:15:07;1.00;;;1.00;;
11173;SDS011;5643;50.856;12.088;2023-09-18T00:17:35;1.30;;;1.20;;
11173;SDS011;5643;50.856;12.088;2023-09-18T00:20:03;1.00;;;1.00;;
11173;SDS011;5643;50.856;12.088;2023-09-18T00:22:32;1.20;;;1.20;;
11173;SDS011;5643;50.856;12.088;2023-09-18T00:25:01;1.17;;;1.10;;
11173;SDS011;5643;50.856;12.088;2023-09-18T00:27:28;1.27;;;1.20;;
11173;SDS011;5643;50.856;12.088;2023-09-18T00:29:55;1.00;;;1.00;;
11173;SDS011;5643;50.856;12.088;2023-09-18T00:32:23;0.93;;;0.93;;
11173;SDS011;5643;50.856;12.088;2023-09-18T00:34:50;1.40;;;1.37;;
11173;SDS011;5643;50.856;12.088;2023-09-18T00:37:17;1.10;;;1.10;;
11173;SDS011;5643;50.856;12.088;2023-09-18T00:39:44;1.00;;;1.00;;
11173;SDS011;5643;50.856;12.088;2023-09-18T00:42:13;1.00;;;1.00;;
11173;SDS011;5643;50.856;12.088;2023-09-18T00:44:43;1.20;;;1.20;;
11173;SDS011;5643;50.856;12.088;2023-09-18T00:47:11;1.40;;;1.30;;
11173;SDS011;5643;50.856;12.088;2023-09-18T00:49:39;1.30;;;1.20;;
11173;SDS011;5643;50.856;12.088;2023-09-18T00:52:07;1.00;;;1.00;;
11173;SDS011;5643;50.856;12.088;2023-09-18T00:54:34;1.40;;;1.30;;
11173;SDS011;5643;50.856;12.088;2023-09-18T00:57:03;1.00;;;1.00;;
11173;SDS011;5643;50.856;12.088;2023-09-18T00:59:31;1.20;;;1.10;;
11173;SDS011;5643;50.856;12.088;2023-09-18T01:01:59;1.83;;;1.13;;
11173;SDS011;5643;50.856;12.088;2023-09-18T01:04:27;1.10;;;1.10;;
11173;SDS011;5643;50.856;12.088;2023-09-18T01:06:55;1.10;;;1.10;;
11173;SDS011;5643;50.856;12.088;2023-09-18T01:09:24;1.47;;;1.37;;
11173;SDS011;5643;50.856;12.088;2023-09-18T01:11:53;1.17;;;1.13;;
11173;SDS011;5643;50.856;12.088;2023-09-18T01:14:23;1.30;;;1.20;;
11173;SDS011;5643;50.856;12.088;2023-09-18T01:16:56;1.37;;;1.27;;
11173;SDS011;5643;50.856;12.088;2023-09-18T01:19:36;1.10;;;1.10;;
11173;SDS011;5643;50.856;12.088;2023-09-18T01:22:03;1.20;;;1.20;;
11173;SDS011;5643;50.856;12.088;2023-09-18T01:24:32;1.00;;;1.00;;
11173;SDS011;5643;50.856;12.088;2023-09-18T01:27:00;1.10;;;1.10;;
11173;SDS011;5643;50.856;12.088;2023-09-18T01:29:29;1.27;;;1.17;;
11173;SDS011;5643;50.856;12.088;2023-09-18T01:31:56;1.10;;;1.10;;
11173;SDS011;5643;50.856;12.088;2023-09-18T01:34:25;1.30;;;1.20;;
11173;SDS011;5643;50.856;12.088;2023-09-18T01:36:52;1.13;;;1.13;;
11173;SDS011;5643;50.856;12.088;2023-09-18T01:39:20;1.17;;;1.10;;
11173;SDS011;5643;50.856;12.088;2023-09-18T01:41:50;1.17;;;1.10;;
11173;SDS011;5643;50.856;12.088;2023-09-18T01:44:17;1.30;;;1.23;;
11173;SDS011;5643;50.856;12.088;2023-09-18T01:46:44;1.20;;;1.20;;
11173;SDS011;5643;50.856;12.088;2023-09-18T01:49:12;1.10;;;1.10;;
11173;SDS011;5643;50.856;12.088;2023-09-18T01:51:39;1.33;;;1.23;;
11173;SDS011;5643;50.856;12.088;2023-09-18T01:54:07;1.27;;;1.20;;
11173;SDS011;5643;50.856;12.088;2023-09-18T01:56:34;1.20;;;1.10;;
11173;SDS011;5643;50.856;12.088;2023-09-18T01:59:03;1.00;;;1.00;;
11173;SDS011;5643;50.856;12.088;2023-09-18T02:01:30;1.27;;;1.17;;
11173;SDS011;5643;50.856;12.088;2023-09-18T02:03:58;1.20;;;1.20;;
11173;SDS011;5643;50.856;12.088;2023-09-18T02:06:25;1.20;;;1.20;;
11173;SDS011;5643;50.856;12.088;2023-09-18T02:08:53;1.50;;;1.40;;
11173;SDS011;5643;50.856;12.088;2023-09-18T02:11:21;1.30;;;1.20;;
11173;SDS011;5643;50.856;12.088;2023-09-18T02:13:48;1.07;;;1.07;;
11173;SDS011;5643;50.856;12.088;2023-09-18T02:16:17;1.20;;;1.10;;
11173;SDS011;5643;50.856;12.088;2023-09-18T02:18:44;0.87;;;0.87;;
11173;SDS011;5643;50.856;12.088;2023-09-18T02:21:18;1.10;;;1.10;;
11173;SDS011;5643;50.856;12.088;2023-09-18T02:23:45;1.30;;;1.30;;
11173;SDS011;5643;50.856;12.088;2023-09-18T02:26:15;1.20;;;1.20;;
11173;SDS011;5643;50.856;12.088;2023-09-18T02:28:42;1.30;;;1.30;;
11173;SDS011;5643;50.856;12.088;2023-09-18T02:31:10;1.40;;;1.30;;
11173;SDS011;5643;50.856;12.088;2023-09-18T02:33:38;1.10;;;1.10;;
11173;SDS011;5643;50.856;12.088;2023-09-18T02:36:06;1.37;;;1.30;;
11173;SDS011;5643;50.856;12.088;2023-09-18T02:38:33;1.00;;;1.00;;
11173;SDS011;5643;50.856;12.088;2023-09-18T02:41:00;1.00;;;1.00;;
11173;SDS011;5643;50.856;12.088;2023-09-18T02:43:28;1.27;;;1.20;;
11173;SDS011;5643;50.856;12.088;2023-09-18T02:45:55;1.17;;;1.17;;
11173;SDS011;5643;50.856;12.088;2023-09-18T02:48:22;1.20;;;1.20;;
11173;SDS011;5643;50.856;12.088;2023-09-18T02:50:51;1.20;;;1.20;;
11173;SDS011;5643;50.856;12.088;2023-09-18T02:53:18;1.30;;;1.30;;
11173;SDS011;5643;50.856;12.088;2023-09-18T02:55:46;1.47;;;1.37;;
11173;SDS011;5643;50.856;12.088;2023-09-18T02:58:13;1.50;;;1.40;;
11173;SDS011;5643;50.856;12.088;2023-09-18T03:00:41;1.57;;;1.47;;
11173;SDS011;5643;50.856;12.088;2023-09-18T03:03:09;1.20;;;1.20;;
11173;SDS011;5643;50.856;12.088;2023-09-18T03:05:36;1.50;;;1.40;;
11173;SDS011;5643;50.856;12.088;2023-09-18T03:08:05;1.47;;;1.40;;
11173;SDS011;5643;50.856;12.088;2023-09-18T03:10:33;1.40;;;1.30;;
11173;SDS011;5643;50.856;12.088;2023-09-18T03:13:01;1.30;;;1.30;;
11173;SDS011;5643;50.856;12.088;2023-09-18T03:15:28;1.17;;;1.17;;
11173;SDS011;5643;50.856;12.088;2023-09-18T03:17:56;1.50;;;1.40;;
11173;SDS011;5643;50.856;12.088;2023-09-18T03:20:24;1.50;;;1.40;;
11173;SDS011;5643;50.856;12.088;2023-09-18T03:22:52;1.63;;;1.40;;
11173;SDS011;5643;50.856;12.088;2023-09-18T03:25:21;1.47;;;1.37;;
11173;SDS011;5643;50.856;12.088;2023-09-18T03:27:49;1.30;;;1.30;;
11173;SDS011;5643;50.856;12.088;2023-09-18T03:30:16;1.50;;;1.40;;
11173;SDS011;5643;50.856;12.088;2023-09-18T03:32:58;1.47;;;1.37;;
11173;SDS011;5643;50.856;12.088;2023-09-18T03:35:25;1.60;;;1.50;;
11173;SDS011;5643;50.856;12.088;2023-09-18T03:37:53;1.20;;;1.20;;
11173;SDS011;5643;50.856;12.088;2023-09-18T03:40:22;1.30;;;1.30;;
11173;SDS011;5643;50.856;12.088;2023-09-18T03:42:49;1.20;;;1.20;;
11173;SDS011;5643;50.856;12.088;2023-09-18T03:45:16;1.27;;;1.27;;
11173;SDS011;5643;50.856;12.088;2023-09-18T03:47:45;1.20;;;1.20;;
11173;SDS011;5643;50.856;12.088;2023-09-18T03:50:13;1.30;;;1.30;;
11173;SDS011;5643;50.856;12.088;2023-09-18T03:52:41;1.60;;;1.50;;
11173;SDS011;5643;50.856;12.088;2023-09-18T03:55:08;1.73;;;1.63;;
11173;SDS011;5643;50.856;12.088;2023-09-18T03:57:37;1.30;;;1.30;;
11173;SDS011;5643;50.856;12.088;2023-09-18T04:00:04;1.63;;;1.53;;
11173;SDS011;5643;50.856;12.088;2023-09-18T04:02:33;1.40;;;1.37;;
11173;SDS011;5643;50.856;12.088;2023-09-18T04:05:01;1.43;;;1.33;;
11173;SDS011;5643;50.856;12.088;2023-09-18T04:07:29;1.67;;;1.57;;
11173;SDS011;5643;50.856;12.088;2023-09-18T04:09:57;1.47;;;1.47;;
11173;SDS011;5643;50.856;12.088;2023-09-18T04:12:24;1.33;;;1.33;;
11173;SDS011;5643;50.856;12.088;2023-09-18T04:14:52;1.70;;;1.60;;
11173;SDS011;5643;50.856;12.088;2023-09-18T04:17:20;1.33;;;1.30;;
11173;SDS011;5643;50.856;12.088;2023-09-18T04:19:47;1.27;;;1.27;;
11173;SDS011;5643;50.856;12.088;2023-09-18T04:22:15;1.40;;;1.30;;
11173;SDS011;5643;50.856;12.088;2023-09-18T04:24:42;1.30;;;1.30;;
11173;SDS011;5643;50.856;12.088;2023-09-18T04:27:09;1.20;;;1.20;;
11173;SDS011;5643;50.856;12.088;2023-09-18T04:29:36;1.23;;;1.23;;
11173;SDS011;5643;50.856;12.088;2023-09-18T04:32:05;1.50;;;1.40;;
11173;SDS011;5643;50.856;12.088;2023-09-18T04:34:33;1.30;;;1.30;;
11173;SDS011;5643;50.856;12.088;2023-09-18T04:37:00;1.60;;;1.50;;
11173;SDS011;5643;50.856;12.088;2023-09-18T04:39:29;1.33;;;1.33;;
11173;SDS011;5643;50.856;12.088;2023-09-18T04:42:00;1.47;;;1.37;;
11173;SDS011;5643;50.856;12.088;2023-09-18T04:44:29;1.10;;;1.10;;
11173;SDS011;5643;50.856;12.088;2023-09-18T04:46:56;1.50;;;1.40;;
11173;SDS011;5643;50.856;12.088;2023-09-18T04:49:26;1.47;;;1.40;;
11173;SDS011;5643;50.856;12.088;2023-09-18T04:51:55;1.40;;;1.40;;
11173;SDS011;5643;50.856;12.088;2023-09-18T04:54:34;1.47;;;1.40;;
11173;SDS011;5643;50.856;12.088;2023-09-18T04:57:02;1.43;;;1.40;;
11173;SDS011;5643;50.856;12.088;2023-09-18T04:59:30;1.53;;;1.43;;
11173;SDS011;5643;50.856;12.088;2023-09-18T05:01:57;1.20;;;1.20;;
11173;SDS011;5643;50.856;12.088;2023-09-18T05:04:26;1.57;;;1.47;;
11173;SDS011;5643;50.856;12.088;2023-09-18T05:06:53;1.37;;;1.37;;
11173;SDS011;5643;50.856;12.088;2023-09-18T05:09:22;1.53;;;1.23;;
11173;SDS011;5643;50.856;12.088;2023-09-18T05:11:49;1.20;;;1.20;;
11173;SDS011;5643;50.856;12.088;2023-09-18T05:14:17;1.20;;;1.20;;
11173;SDS011;5643;50.856;12.088;2023-09-18T05:16:44;1.70;;;1.60;;
11173;SDS011;5643;50.856;12.088;2023-09-18T05:19:12;1.40;;;1.30;;
11173;SDS011;5643;50.856;12.088;2023-09-18T05:21:41;1.50;;;1.40;;
11173;SDS011;5643;50.856;12.088;2023-09-18T05:24:09;1.47;;;1.37;;
11173;SDS011;5643;50.856;12.088;2023-09-18T05:26:36;1.23;;;1.23;;
11173;SDS011;5643;50.856;12.088;2023-09-18T05:29:03;1.40;;;1.30;;
11173;SDS011;5643;50.856;12.088;2023-09-18T05:31:31;1.40;;;1.30;;
11173;SDS011;5643;50.856;12.088;2023-09-18T05:33:58;1.40;;;1.40;;
11173;SDS011;5643;50.856;12.088;2023-09-18T05:36:26;1.40;;;1.30;;
11173;SDS011;5643;50.856;12.088;2023-09-18T05:39:00;1.63;;;1.53;;
11173;SDS011;5643;50.856;12.088;2023-09-18T05:41:29;1.50;;;1.40;;
11173;SDS011;5643;50.856;12.088;2023-09-18T05:43:57;1.47;;;1.43;;
11173;SDS011;5643;50.856;12.088;2023-09-18T05:46:24;1.30;;;1.20;;
11173;SDS011;5643;50.856;12.088;2023-09-18T05:48:51;1.60;;;1.50;;
11173;SDS011;5643;50.856;12.088;2023-09-18T05:51:22;1.70;;;1.60;;
11173;SDS011;5643;50.856;12.088;2023-09-18T05:53:49;1.53;;;1.50;;
11173;SDS011;5643;50.856;12.088;2023-09-18T05:56:18;1.33;;;1.33;;
11173;SDS011;5643;50.856;12.088;2023-09-18T05:59:03;1.50;;;1.40;;
11173;SDS011;5643;50.856;12.088;2023-09-18T06:01:31;1.50;;;1.40;;
11173;SDS011;5643;50.856;12.088;2023-09-18T06:03:58;1.40;;;1.40;;
11173;SDS011;5643;50.856;12.088;2023-09-18T06:06:28;1.40;;;1.30;;
11173;SDS011;5643;50.856;12.088;2023-09-18T06:08:55;1.40;;;1.40;;
11173;SDS011;5643;50.856;12.088;2023-09-18T06:11:26;1.30;;;1.20;;
11173;SDS011;5643;50.856;12.088;2023-09-18T06:13:53;1.60;;;1.50;;
11173;SDS011;5643;50.856;12.088;2023-09-18T06:16:21;1.80;;;1.70;;
11173;SDS011;5643;50.856;12.088;2023-09-18T06:18:48;1.83;;;1.70;;
11173;SDS011;5643;50.856;12.088;2023-09-18T06:21:16;2.10;;;2.00;;
11173;SDS011;5643;50.856;12.088;2023-09-18T06:23:43;1.93;;;1.83;;
11173;SDS011;5643;50.856;12.088;2023-09-18T06:26:10;2.07;;;1.97;;
11173;SDS011;5643;50.856;12.088;2023-09-18T06:28:39;1.50;;;1.40;;
11173;SDS011;5643;50.856;12.088;2023-09-18T06:31:06;2.17;;;2.07;;
11173;SDS011;5643;50.856;12.088;2023-09-18T06:33:34;2.30;;;2.20;;
11173;SDS011;5643;50.856;12.088;2023-09-18T06:36:02;2.07;;;1.97;;
11173;SDS011;5643;50.856;12.088;2023-09-18T06:38:29;2.40;;;2.30;;
11173;SDS011;5643;50.856;12.088;2023-09-18T06:40:57;2.30;;;2.20;;
11173;SDS011;5643;50.856;12.088;2023-09-18T06:43:24;2.10;;;2.00;;
11173;SDS011;5643;50.856;12.088;2023-09-18T06:45:53;1.93;;;1.80;;
11173;SDS011;5643;50.856;12.088;2023-09-18T06:48:21;1.73;;;1.63;;
11173;SDS011;5643;50.856;12.088;2023-09-18T06:50:49;1.60;;;1.50;;
11173;SDS011;5643;50.856;12.088;2023-09-18T06:53:16;1.73;;;1.63;;
11173;SDS011;5643;50.856;12.088;2023-09-18T06:55:43;1.60;;;1.50;;
11173;SDS011;5643;50.856;12.088;2023-09-18T06:58:11;1.70;;;1.60;;
11173;SDS011;5643;50.856;12.088;2023-09-18T07:00:38;1.70;;;1.60;;
11173;SDS011;5643;50.856;12.088;2023-09-18T07:03:07;1.80;;;1.70;;
11173;SDS011;5643;50.856;12.088;2023-09-18T07:05:35;1.63;;;1.53;;
11173;SDS011;5643;50.856;12.088;2023-09-18T07:08:04;1.90;;;1.70;;
11173;SDS011;5643;50.856;12.088;2023-09-18T07:10:35;1.80;;;1.70;;
11173;SDS011;5643;50.856;12.088;2023-09-18T07:13:03;1.70;;;1.60;;
11173;SDS011;5643;50.856;12.088;2023-09-18T07:15:30;1.77;;;1.67;;
11173;SDS011;5643;50.856;12.088;2023-09-18T07:17:57;1.57;;;1.47;;
11173;SDS011;5643;50.856;12.088;2023-09-18T07:20:26;1.60;;;1.50;;
11173;SDS011;5643;50.856;12.088;2023-09-18T07:22:54;1.40;;;1.40;;
11173;SDS011;5643;50.856;12.088;2023-09-18T07:25:21;1.53;;;1.43;;
11173;SDS011;5643;50.856;12.088;2023-09-18T07:27:48;1.57;;;1.47;;
11173;SDS011;5643;50.856;12.088;2023-09-18T07:30:16;1.47;;;1.47;;
11173;SDS011;5643;50.856;12.088;2023-09-18T07:32:45;1.77;;;1.67;;
11173;SDS011;5643;50.856;12.088;2023-09-18T07:35:13;1.70;;;1.60;;
11173;SDS011;5643;50.856;12.088;2023-09-18T07:37:42;1.40;;;1.40;;
11173;SDS011;5643;50.856;12.088;2023-09-18T07:40:12;1.57;;;1.47;;
11173;SDS011;5643;50.856;12.088;2023-09-18T07:42:39;1.40;;;1.40;;
11173;SDS011;5643;50.856;12.088;2023-09-18T07:45:07;1.50;;;1.40;;
11173;SDS011;5643;50.856;12.088;2023-09-18T07:47:34;1.30;;;1.20;;
11173;SDS011;5643;50.856;12.088;2023-09-18T07:50:04;1.43;;;1.43;;
11173;SDS011;5643;50.856;12.088;2023-09-18T07:52:33;1.33;;;1.33;;
11173;SDS011;5643;50.856;12.088;2023-09-18T07:55:02;1.10;;;1.10;;
11173;SDS011;5643;50.856;12.088;2023-09-18T07:57:29;1.20;;;1.20;;
11173;SDS011;5643;50.856;12.088;2023-09-18T08:00:06;1.17;;;1.17;;
11173;SDS011;5643;50.856;12.088;2023-09-18T08:02:38;0.90;;;0.90;;
11173;SDS011;5643;50.856;12.088;2023-09-18T08:05:06;1.10;;;1.10;;
11173;SDS011;5643;50.856;12.088;2023-09-18T08:07:35;1.40;;;1.30;;
11173;SDS011;5643;50.856;12.088;2023-09-18T08:10:22;1.00;;;1.00;;
11173;SDS011;5643;50.856;12.088;2023-09-18T08:12:50;1.37;;;1.03;;
11173;SDS011;5643;50.856;12.088;2023-09-18T08:15:22;1.10;;;1.10;;
11173;SDS011;5643;50.856;12.088;2023-09-18T08:17:50;1.50;;;1.40;;
11173;SDS011;5643;50.856;12.088;2023-09-18T08:20:19;1.20;;;1.20;;
11173;SDS011;5643;50.856;12.088;2023-09-18T08:22:46;1.03;;;1.03;;
11173;SDS011;5643;50.856;12.088;2023-09-18T08:25:15;0.80;;;0.80;;
11173;SDS011;5643;50.856;12.088;2023-09-18T08:27:44;1.00;;;1.00;;
11173;SDS011;5643;50.856;12.088;2023-09-18T08:30:15;0.90;;;0.90;;
11173;SDS011;5643;50.856;12.088;2023-09-18T08:32:58;0.90;;;0.90;;
11173;SDS011;5643;50.856;12.088;2023-09-18T08:35:27;1.00;;;1.00;;
11173;SDS011;5643;50.856;12.088;2023-09-18T08:37:55;0.90;;;0.90;;
11173;SDS011;5643;50.856;12.088;2023-09-18T08:40:29;0.90;;;0.90;;
11173;SDS011;5643;50.856;12.088;2023-09-18T08:42:58;0.67;;;0.67;;
11173;SDS011;5643;50.856;12.088;2023-09-18T08:45:29;1.05;;;1.05;;
11173;SDS011;5643;50.856;12.088;2023-09-18T08:48:02;1.00;;;1.00;;
11173;SDS011;5643;50.856;12.088;2023-09-18T08:50:29;1.20;;;1.20;;
11173;SDS011;5643;50.856;12.088;2023-09-18T08:52:58;1.17;;;1.17;;
11173;SDS011;5643;50.856;12.088;2023-09-18T08:55:27;1.40;;;1.40;;
11173;SDS011;5643;50.856;12.088;2023-09-18T08:58:00;2.75;;;1.50;;
11173;SDS011;5643;50.856;12.088;2023-09-18T09:00:39;1.60;;;1.50;;
11173;SDS011;5643;50.856;12.088;2023-09-18T09:03:07;1.50;;;1.40;;
11173;SDS011;5643;50.856;12.088;2023-09-18T09:05:41;1.05;;;1.05;;
11173;SDS011;5643;50.856;12.088;2023-09-18T09:08:12;1.15;;;1.15;;
11173;SDS011;5643;50.856;12.088;2023-09-18T09:10:40;1.33;;;1.33;;
11173;SDS011;5643;50.856;12.088;2023-09-18T09:13:09;1.58;;;1.48;;
11173;SDS011;5643;50.856;12.088;2023-09-18T09:15:43;1.55;;;1.45;;
11173;SDS011;5643;50.856;12.088;2023-09-18T09:18:12;1.50;;;1.40;;
11173;SDS011;5643;50.856;12.088;2023-09-18T09:20:54;1.58;;;1.48;;
11173;SDS011;5643;50.856;12.088;2023-09-18T09:23:24;1.20;;;1.20;;
11173;SDS011;5643;50.856;12.088;2023-09-18T09:25:52;1.40;;;1.30;;
11173;SDS011;5643;50.856;12.088;2023-09-18T09:28:30;1.25;;;1.13;;
11173;SDS011;5643;50.856;12.088;2023-09-18T09:31:00;1.25;;;1.25;;
11173;SDS011;5643;50.856;12.088;2023-09-18T09:33:29;1.15;;;1.15;;
11173;SDS011;5643;50.856;12.088;2023-09-18T09:36:04;1.30;;;1.20;;
11173;SDS011;5643;50.856;12.088;2023-09-18T09:38:34;1.00;;;1.00;;
11173;SDS011;5643;50.856;12.088;2023-09-18T09:41:03;1.20;;;1.20;;
11173;SDS011;5643;50.856;12.088;2023-09-18T09:43:37;1.15;;;1.15;;
11173;SDS011;5643;50.856;12.088;2023-09-18T09:46:08;1.10;;;1.10;;
11173;SDS011;5643;50.856;12.088;2023-09-18T09:48:57;1.10;;;1.10;;
11173;SDS011;5643;50.856;12.088;2023-09-18T09:51:25;1.30;;;1.00;;
11173;SDS011;5643;50.856;12.088;2023-09-18T09:53:53;1.17;;;1.15;;
11173;SDS011;5643;50.856;12.088;2023-09-18T09:56:21;1.17;;;1.10;;
11173;SDS011;5643;50.856;12.088;2023-09-18T09:59:02;1.02;;;1.02;;
11173;SDS011;5643;50.856;12.088;2023-09-18T10:01:34;1.30;;;1.20;;
11173;SDS011;5643;50.856;12.088;2023-09-18T10:04:03;1.10;;;1.10;;
11173;SDS011;5643;50.856;12.088;2023-09-18T10:06:33;1.27;;;1.17;;
11173;SDS011;5643;50.856;12.088;2023-09-18T10:09:03;1.00;;;1.00;;
11173;SDS011;5643;50.856;12.088;2023-09-18T10:11:33;1.02;;;1.00;;
11173;SDS011;5643;50.856;12.088;2023-09-18T10:14:06;0.90;;;0.90;;
11173;SDS011;5643;50.856;12.088;2023-09-18T10:16:37;1.30;;;1.20;;
11173;SDS011;5643;50.856;12.088;2023-09-18T10:19:10;1.00;;;1.00;;
11173;SDS011;5643;50.856;12.088;2023-09-18T10:21:41;1.15;;;1.10;;
11173;SDS011;5643;50.856;12.088;2023-09-18T10:24:16;0.95;;;0.95;;
11173;SDS011;5643;50.856;12.088;2023-09-18T10:26:47;1.15;;;1.05;;
11173;SDS011;5643;50.856;12.088;2023-09-18T10:29:18;1.67;;;0.98;;
11173;SDS011;5643;50.856;12.088;2023-09-18T10:31:46;0.90;;;0.90;;
11173;SDS011;5643;50.856;12.088;2023-09-18T10:34:14;0.90;;;0.90;;
11173;SDS011;5643;50.856;12.088;2023-09-18T10:36:43;1.08;;;1.08;;
11173;SDS011;5643;50.856;12.088;2023-09-18T10:39:12;1.05;;;1.00;;
11173;SDS011;5643;50.856;12.088;2023-09-18T10:41:47;1.13;;;1.00;;
11173;SDS011;5643;50.856;12.088;2023-09-18T10:44:34;0.85;;;0.80;;
11173;SDS011;5643;50.856;12.088;2023-09-18T10:47:02;0.90;;;0.90;;
11173;SDS011;5643;50.856;12.088;2023-09-18T10:49:31;2.63;;;1.20;;
11173;SDS011;5643;50.856;12.088;2023-09-18T10:52:01;2.13;;;1.42;;
11173;SDS011;5643;50.856;12.088;2023-09-18T10:54:29;1.10;;;1.00;;
11173;SDS011;5643;50.856;12.088;2023-09-18T10:56:57;1.50;;;1.10;;
11173;SDS011;5643;50.856;12.088;2023-09-18T10:59:27;1.48;;;1.00;;
11173;SDS011;5643;50.856;12.088;2023-09-18T11:02:00;1.25;;;1.15;;
11173;SDS011;5643;50.856;12.088;2023-09-18T11:04:30;1.45;;;1.02;;
11173;SDS011;5643;50.856;12.088;2023-09-18T11:07:01;0.90;;;0.90;;
11173;SDS011;5643;50.856;12.088;2023-09-18T11:09:43;1.55;;;1.00;;
11173;SDS011;5643;50.856;12.088;2023-09-18T11:12:11;0.95;;;0.77;;
11173;SDS011;5643;50.856;12.088;2023-09-18T11:14:42;0.80;;;0.80;;
11173;SDS011;5643;50.856;12.088;2023-09-18T11:22:49;0.73;;;0.70;;
11173;SDS011;5643;50.856;12.088;2023-09-18T11:25:29;0.63;;;0.63;;
11173;SDS011;5643;50.856;12.088;2023-09-18T11:27:58;0.68;;;0.68;;
11173;SDS011;5643;50.856;12.088;2023-09-18T11:30:25;0.80;;;0.60;;
11173;SDS011;5643;50.856;12.088;2023-09-18T11:32:54;0.55;;;0.55;;
11173;SDS011;5643;50.856;12.088;2023-09-18T11:35:25;0.75;;;0.57;;
11173;SDS011;5643;50.856;12.088;2023-09-18T11:38:08;1.60;;;1.08;;
11173;SDS011;5643;50.856;12.088;2023-09-18T11:40:36;0.52;;;0.52;;
11173;SDS011;5643;50.856;12.088;2023-09-18T11:45:51;0.57;;;0.57;;
11173;SDS011;5643;50.856;12.088;2023-09-18T11:48:19;0.60;;;0.60;;
11173;SDS011;5643;50.856;12.088;2023-09-18T11:50:47;0.70;;;0.60;;
11173;SDS011;5643;50.856;12.088;2023-09-18T11:53:18;1.92;;;0.70;;
11173;SDS011;5643;50.856;12.088;2023-09-18T11:55:46;0.68;;;0.68;;
11173;SDS011;5643;50.856;12.088;2023-09-18T11:58:13;0.70;;;0.70;;
11173;SDS011;5643;50.856;12.088;2023-09-18T12:00:41;0.70;;;0.70;;
11173;SDS011;5643;50.856;12.088;2023-09-18T12:03:18;1.23;;;0.65;;
11173;SDS011;5643;50.856;12.088;2023-09-18T12:05:57;0.90;;;0.63;;
11173;SDS011;5643;50.856;12.088;2023-09-18T12:08:27;0.60;;;0.50;;
11173;SDS011;5643;50.856;12.088;2023-09-18T12:10:57;1.60;;;0.80;;
11173;SDS011;5643;50.856;12.088;2023-09-18T12:13:27;0.95;;;0.90;;
11173;SDS011;5643;50.856;12.088;2023-09-18T12:15:57;1.17;;;0.75;;
11173;SDS011;5643;50.856;12.088;2023-09-18T12:18:26;1.13;;;0.77;;
11173;SDS011;5643;50.856;12.088;2023-09-18T12:20:54;1.05;;;0.88;;
11173;SDS011;5643;50.856;12.088;2023-09-18T12:23:38;1.15;;;1.05;;
11173;SDS011;5643;50.856;12.088;2023-09-18T12:26:09;1.17;;;1.10;;
11173;SDS011;5643;50.856;12.088;2023-09-18T12:28:39;1.60;;;0.95;;
11173;SDS011;5643;50.856;12.088;2023-09-18T12:31:09;0.90;;;0.90;;
11173;SDS011;5643;50.856;12.088;2023-09-18T12:33:37;0.70;;;0.65;;
11173;SDS011;5643;50.856;12.088;2023-09-18T12:36:05;2.45;;;1.05;;
11173;SDS011;5643;50.856;12.088;2023-09-18T12:38:33;2.28;;;0.80;;
11173;SDS011;5643;50.856;12.088;2023-09-18T12:41:04;1.20;;;0.75;;
11173;SDS011;5643;50.856;12.088;2023-09-18T12:43:40;0.73;;;0.73;;
11173;SDS011;5643;50.856;12.088;2023-09-18T12:46:08;0.68;;;0.68;;
11173;SDS011;5643;50.856;12.088;2023-09-18T12:48:36;0.60;;;0.60;;
11173;SDS011;5643;50.856;12.088;2023-09-18T12:51:04;0.70;;;0.70;;
11173;SDS011;5643;50.856;12.088;2023-09-18T12:53:32;1.00;;;0.82;;
11173;SDS011;5643;50.856;12.088;2023-09-18T12:56:07;0.80;;;0.80;;
11173;SDS011;5643;50.856;12.088;2023-09-18T12:58:35;0.90;;;0.90;;
11173;SDS011;5643;50.856;12.088;2023-09-18T13:01:04;1.58;;;1.15;;
11173;SDS011;5643;50.856;12.088;2023-09-18T13:03:42;1.00;;;0.90;;
11173;SDS011;5643;50.856;12.088;2023-09-18T13:06:10;1.05;;;0.85;;
11173;SDS011;5643;50.856;12.088;2023-09-18T13:08:37;0.77;;;0.77;;
11173;SDS011;5643;50.856;12.088;2023-09-18T13:11:06;0.95;;;0.95;;
11173;SDS011;5643;50.856;12.088;2023-09-18T13:13:36;0.93;;;0.77;;
11173;SDS011;5643;50.856;12.088;2023-09-18T13:16:04;0.82;;;0.80;;
11173;SDS011;5643;50.856;12.088;2023-09-18T13:18:32;1.00;;;1.00;;
11173;SDS011;5643;50.856;12.088;2023-09-18T13:21:00;1.00;;;1.00;;
11173;SDS011;5643;50.856;12.088;2023-09-18T13:23:29;1.23;;;1.10;;
11173;SDS011;5643;50.856;12.088;2023-09-18T13:26:00;1.58;;;1.10;;
11173;SDS011;5643;50.856;12.088;2023-09-18T13:28:31;1.00;;;1.00;;
11173;SDS011;5643;50.856;12.088;2023-09-18T13:31:00;1.38;;;1.27;;
11173;SDS011;5643;50.856;12.088;2023-09-18T13:33:30;1.02;;;1.02;;
11173;SDS011;5643;50.856;12.088;2023-09-18T13:35:59;0.82;;;0.82;;
11173;SDS011;5643;50.856;12.088;2023-09-18T13:38:27;0.98;;;0.90;;
11173;SDS011;5643;50.856;12.088;2023-09-18T13:40:54;1.48;;;0.82;;
11173;SDS011;5643;50.856;12.088;2023-09-18T13:43:27;1.08;;;0.80;;
11173;SDS011;5643;50.856;12.088;2023-09-18T13:45:59;0.70;;;0.70;;
11173;SDS011;5643;50.856;12.088;2023-09-18T13:48:30;1.20;;;0.75;;
11173;SDS011;5643;50.856;12.088;2023-09-18T13:50:58;0.80;;;0.80;;
11173;SDS011;5643;50.856;12.088;2023-09-18T13:53:39;1.05;;;0.95;;
11173;SDS011;5643;50.856;12.088;2023-09-18T13:56:07;1.20;;;1.10;;
11173;SDS011;5643;50.856;12.088;2023-09-18T13:58:34;1.00;;;0.90;;
11173;SDS011;5643;50.856;12.088;2023-09-18T14:01:08;1.10;;;1.00;;
11173;SDS011;5643;50.856;12.088;2023-09-18T14:03:35;1.33;;;0.90;;
11173;SDS011;5643;50.856;12.088;2023-09-18T14:06:03;2.03;;;0.95;;
11173;SDS011;5643;50.856;12.088;2023-09-18T14:08:31;1.25;;;0.80;;
11173;SDS011;5643;50.856;12.088;2023-09-18T14:10:59;0.80;;;0.80;;
11173;SDS011;5643;50.856;12.088;2023-09-18T14:13:26;0.80;;;0.80;;
11173;SDS011;5643;50.856;12.088;2023-09-18T14:15:53;1.35;;;1.00;;
11173;SDS011;5643;50.856;12.088;2023-09-18T14:18:23;0.90;;;0.90;;
11173;SDS011;5643;50.856;12.088;2023-09-18T14:20:50;1.10;;;0.90;;
11173;SDS011;5643;50.856;12.088;2023-09-18T14:23:17;2.47;;;1.10;;
11173;SDS011;5643;50.856;12.088;2023-09-18T14:25:45;1.13;;;1.00;;
11173;SDS011;5643;50.856;12.088;2023-09-18T14:28:12;1.50;;;1.25;;
11173;SDS011;5643;50.856;12.088;2023-09-18T14:30:40;1.35;;;1.10;;
11173;SDS011;5643;50.856;12.088;2023-09-18T14:33:07;1.20;;;1.10;;
11173;SDS011;5643;50.856;12.088;2023-09-18T14:35:36;1.00;;;1.00;;
11173;SDS011;5643;50.856;12.088;2023-09-18T14:38:05;1.05;;;1.00;;
11173;SDS011;5643;50.856;12.088;2023-09-18T14:40:32;0.85;;;0.85;;
11173;SDS011;5643;50.856;12.088;2023-09-18T14:43:00;1.05;;;0.90;;
11173;SDS011;5643;50.856;12.088;2023-09-18T14:45:27;0.88;;;0.82;;
11173;SDS011;5643;50.856;12.088;2023-09-18T14:47:54;0.80;;;0.80;;
11173;SDS011;5643;50.856;12.088;2023-09-18T14:50:21;0.90;;;0.90;;
11173;SDS011;5643;50.856;12.088;2023-09-18T14:52:50;0.75;;;0.75;;
11173;SDS011;5643;50.856;12.088;2023-09-18T14:55:18;0.98;;;0.95;;
11173;SDS011;5643;50.856;12.088;2023-09-18T14:57:45;1.48;;;0.77;;
11173;SDS011;5643;50.856;12.088;2023-09-18T15:00:14;0.80;;;0.73;;
11173;SDS011;5643;50.856;12.088;2023-09-18T15:02:42;1.00;;;0.70;;
11173;SDS011;5643;50.856;12.088;2023-09-18T15:05:09;0.77;;;0.60;;
11173;SDS011;5643;50.856;12.088;2023-09-18T15:07:38;0.60;;;0.60;;